sensor_id;sensor_type;location;lat;lon;timestamp;temperature;humidity
12446;DHT22;6287;50.984;7.022;2023-05-14T00:01:16;11.30;99.90
12446;DHT22;6287;50.984;7.022;2023-05-14T00:03:44;11.50;99.90
12446;DHT22;6287;50.984;7.022;2023-05-14T00:06:10;11.10;99.90
12446;DHT22;6287;50.984;7.022;2023-05-14T00:08:38;11.40;99.90
12446;DHT22;6287;50.984;7.022;2023-05-14T00:11:03;12.00;99.90
12446;DHT22;6287;50.984;7.022;2023-05-14T00:13:29;10.90;99.90
12446;DHT22;6287;50.984;7.022;2023-05-14T00:15:54;10.80;99.90
12446;DHT22;6287;50.984;7.022;2023-05-14T00:18:25;11.00;99.90
12446;DHT22;6287;50.984;7.022;2023-05-14T00:20:53;10.90;99.90
12446;DHT22;6287;50.984;7.022;2023-05-14T00:23:23;11.40;99.90
12446;DHT22;6287;50.984;7.022;2023-05-14T00:25:51;10.60;99.90
12446;DHT22;6287;50.984;7.022;2023-05-14T00:28:16;10.90;99.90
12446;DHT22;6287;50.984;7.022;2023-05-14T00:30:42;10.90;99.90
12446;DHT22;6287;50.984;7.022;2023-05-14T00:33:08;10.60;99.90
12446;DHT22;6287;50.984;7.022;2023-05-14T00:35:34;10.90;99.90
12446;DHT22;6287;50.984;7.022;2023-05-14T00:38:01;11.10;99.90
12446;DHT22;6287;50.984;7.022;2023-05-14T00:40:26;10.70;99.90
12446;DHT22;6287;50.984;7.022;2023-05-14T00:42:55;10.90;99.90
12446;DHT22;6287;50.984;7.022;2023-05-14T00:45:21;11.10;99.90
12446;DHT22;6287;50.984;7.022;2023-05-14T00:47:52;10.70;99.90
12446;DHT22;6287;50.984;7.022;2023-05-14T00:50:21;11.20;99.90
12446;DHT22;6287;50.984;7.022;2023-05-14T00:52:49;10.70;99.90
12446;DHT22;6287;50.984;7.022;2023-05-14T00:55:15;11.10;99.90
12446;DHT22;6287;50.984;7.022;2023-05-14T00:57:43;10.70;99.90
12446;DHT22;6287;50.984;7.022;2023-05-14T01:00:09;10.60;99.90
12446;DHT22;6287;50.984;7.022;2023-05-14T01:02:35;10.10;99.90
12446;DHT22;6287;50.984;7.022;2023-05-14T01:05:03;10.70;99.90
12446;DHT22;6287;50.984;7.022;2023-05-14T01:08:03;10.10;99.90
12446;DHT22;6287;50.984;7.022;2023-05-14T01:10:56;10.10;99.90
12446;DHT22;6287;50.984;7.022;2023-05-14T01:13:36;10.10;99.90
12446;DHT22;6287;50.984;7.022;2023-05-14T01:16:03;10.70;99.90
12446;DHT22;6287;50.984;7.022;2023-05-14T01:18:31;10.00;99.90
12446;DHT22;6287;50.984;7.022;2023-05-14T01:20:57;10.00;99.90
12446;DHT22;6287;50.984;7.022;2023-05-14T01:23:27;10.20;99.90
12446;DHT22;6287;50.984;7.022;2023-05-14T01:25:53;9.90;99.90
12446;DHT22;6287;50.984;7.022;2023-05-14T01:28:22;10.50;99.90
12446;DHT22;6287;50.984;7.022;2023-05-14T01:30:56;10.10;99.90
12446;DHT22;6287;50.984;7.022;2023-05-14T01:33:26;10.40;99.90
12446;DHT22;6287;50.984;7.022;2023-05-14T01:35:53;10.60;99.90
12446;DHT22;6287;50.984;7.022;2023-05-14T01:38:22;10.00;99.90
12446;DHT22;6287;50.984;7.022;2023-05-14T01:40:49;10.40;99.90
12446;DHT22;6287;50.984;7.022;2023-05-14T01:43:15;9.80;99.90
12446;DHT22;6287;50.984;7.022;2023-05-14T01:45:42;10.00;99.90
12446;DHT22;6287;50.984;7.022;2023-05-14T01:48:10;9.80;99.90
12446;DHT22;6287;50.984;7.022;2023-05-14T01:50:38;9.70;99.90
12446;DHT22;6287;50.984;7.022;2023-05-14T01:53:03;10.20;99.90
12446;DHT22;6287;50.984;7.022;2023-05-14T01:55:32;9.90;99.90
12446;DHT22;6287;50.984;7.022;2023-05-14T01:57:58;10.10;99.90
12446;DHT22;6287;50.984;7.022;2023-05-14T02:00:23;9.90;99.90
12446;DHT22;6287;50.984;7.022;2023-05-14T02:02:52;9.50;99.90
12446;DHT22;6287;50.984;7.022;2023-05-14T02:05:18;9.80;99.90
12446;DHT22;6287;50.984;7.022;2023-05-14T02:07:45;9.80;99.90
12446;DHT22;6287;50.984;7.022;2023-05-14T02:10:11;10.30;99.90
12446;DHT22;6287;50.984;7.022;2023-05-14T02:12:39;9.60;99.90
12446;DHT22;6287;50.984;7.022;2023-05-14T02:15:07;9.90;99.90
12446;DHT22;6287;50.984;7.022;2023-05-14T02:17:38;9.50;99.90
12446;DHT22;6287;50.984;7.022;2023-05-14T02:20:03;9.80;99.90
12446;DHT22;6287;50.984;7.022;2023-05-14T02:22:29;9.50;99.90
12446;DHT22;6287;50.984;7.022;2023-05-14T02:24:55;9.80;99.90
12446;DHT22;6287;50.984;7.022;2023-05-14T02:27:22;10.00;99.90
12446;DHT22;6287;50.984;7.022;2023-05-14T02:29:51;10.30;99.90
12446;DHT22;6287;50.984;7.022;2023-05-14T02:32:16;10.10;99.90
12446;DHT22;6287;50.984;7.022;2023-05-14T02:34:44;10.20;99.90
12446;DHT22;6287;50.984;7.022;2023-05-14T02:37:12;9.80;99.90
12446;DHT22;6287;50.984;7.022;2023-05-14T02:39:42;9.60;99.90
12446;DHT22;6287;50.984;7.022;2023-05-14T02:42:10;10.10;99.90
12446;DHT22;6287;50.984;7.022;2023-05-14T02:44:36;10.00;99.90
12446;DHT22;6287;50.984;7.022;2023-05-14T02:47:01;9.40;99.90
12446;DHT22;6287;50.984;7.022;2023-05-14T02:49:27;10.10;99.90
12446;DHT22;6287;50.984;7.022;2023-05-14T02:51:52;9.40;99.90
12446;DHT22;6287;50.984;7.022;2023-05-14T02:54:21;10.00;99.90
12446;DHT22;6287;50.984;7.022;2023-05-14T02:56:49;9.90;99.90
12446;DHT22;6287;50.984;7.022;2023-05-14T02:59:14;9.50;99.90
12446;DHT22;6287;50.984;7.022;2023-05-14T03:01:42;10.10;99.90
12446;DHT22;6287;50.984;7.022;2023-05-14T03:04:08;9.30;99.90
12446;DHT22;6287;50.984;7.022;2023-05-14T03:06:38;9.40;99.90
12446;DHT22;6287;50.984;7.022;2023-05-14T03:09:06;10.20;99.90
12446;DHT22;6287;50.984;7.022;2023-05-14T03:11:36;9.10;99.90
12446;DHT22;6287;50.984;7.022;2023-05-14T03:14:02;9.10;99.90
12446;DHT22;6287;50.984;7.022;2023-05-14T03:16:27;9.70;99.90
12446;DHT22;6287;50.984;7.022;2023-05-14T03:18:53;9.00;99.90
12446;DHT22;6287;50.984;7.022;2023-05-14T03:21:19;9.50;99.90
12446;DHT22;6287;50.984;7.022;2023-05-14T03:23:44;9.20;99.90
12446;DHT22;6287;50.984;7.022;2023-05-14T03:26:10;9.20;99.90
12446;DHT22;6287;50.984;7.022;2023-05-14T03:28:38;9.20;99.90
12446;DHT22;6287;50.984;7.022;2023-05-14T03:31:06;9.80;99.90
12446;DHT22;6287;50.984;7.022;2023-05-14T03:33:32;9.00;99.90
12446;DHT22;6287;50.984;7.022;2023-05-14T03:35:58;9.50;99.90
12446;DHT22;6287;50.984;7.022;2023-05-14T03:38:26;8.80;99.90
12446;DHT22;6287;50.984;7.022;2023-05-14T03:40:51;9.10;99.90
12446;DHT22;6287;50.984;7.022;2023-05-14T03:43:17;8.90;99.90
12446;DHT22;6287;50.984;7.022;2023-05-14T03:45:45;9.50;99.90
12446;DHT22;6287;50.984;7.022;2023-05-14T03:48:11;8.70;99.90
12446;DHT22;6287;50.984;7.022;2023-05-14T03:50:37;9.10;99.90
12446;DHT22;6287;50.984;7.022;2023-05-14T03:53:05;8.70;99.90
12446;DHT22;6287;50.984;7.022;2023-05-14T03:55:33;9.20;99.90
12446;DHT22;6287;50.984;7.022;2023-05-14T03:58:01;9.40;99.90
12446;DHT22;6287;50.984;7.022;2023-05-14T04:00:27;8.90;99.90
12446;DHT22;6287;50.984;7.022;2023-05-14T04:02:53;8.60;99.90
12446;DHT22;6287;50.984;7.022;2023-05-14T04:05:19;9.60;99.90
12446;DHT22;6287;50.984;7.022;2023-05-14T04:07:45;8.70;99.90
12446;DHT22;6287;50.984;7.022;2023-05-14T04:10:15;8.70;99.90
12446;DHT22;6287;50.984;7.022;2023-05-14T04:12:43;9.30;99.90
12446;DHT22;6287;50.984;7.022;2023-05-14T04:15:09;9.90;99.90
12446;DHT22;6287;50.984;7.022;2023-05-14T04:17:35;8.60;99.90
12446;DHT22;6287;50.984;7.022;2023-05-14T04:20:00;9.00;99.90
12446;DHT22;6287;50.984;7.022;2023-05-14T04:22:26;8.60;99.90
12446;DHT22;6287;50.984;7.022;2023-05-14T04:24:51;8.90;99.90
12446;DHT22;6287;50.984;7.022;2023-05-14T04:27:20;8.60;99.90
12446;DHT22;6287;50.984;7.022;2023-05-14T04:29:50;8.80;99.90
12446;DHT22;6287;50.984;7.022;2023-05-14T04:32:21;8.70;99.90
12446;DHT22;6287;50.984;7.022;2023-05-14T04:34:49;9.00;99.90
12446;DHT22;6287;50.984;7.022;2023-05-14T04:37:14;9.10;99.90
12446;DHT22;6287;50.984;7.022;2023-05-14T04:39:40;9.00;99.90
12446;DHT22;6287;50.984;7.022;2023-05-14T04:42:08;9.30;99.90
12446;DHT22;6287;50.984;7.022;2023-05-14T04:44:36;8.90;99.90
12446;DHT22;6287;50.984;7.022;2023-05-14T04:47:04;8.80;99.90
12446;DHT22;6287;50.984;7.022;2023-05-14T04:49:31;8.90;99.90
12446;DHT22;6287;50.984;7.022;2023-05-14T04:52:02;9.30;99.90
12446;DHT22;6287;50.984;7.022;2023-05-14T04:54:28;9.90;99.90
12446;DHT22;6287;50.984;7.022;2023-05-14T04:56:53;9.00;99.90
12446;DHT22;6287;50.984;7.022;2023-05-14T04:59:21;9.10;99.90
12446;DHT22;6287;50.984;7.022;2023-05-14T05:01:47;9.20;99.90
12446;DHT22;6287;50.984;7.022;2023-05-14T05:04:12;9.90;99.90
12446;DHT22;6287;50.984;7.022;2023-05-14T05:06:38;9.10;99.90
12446;DHT22;6287;50.984;7.022;2023-05-14T05:09:03;10.00;99.90
12446;DHT22;6287;50.984;7.022;2023-05-14T05:11:35;9.90;99.90
12446;DHT22;6287;50.984;7.022;2023-05-14T05:14:03;9.30;99.90
12446;DHT22;6287;50.984;7.022;2023-05-14T05:16:33;10.30;99.90
12446;DHT22;6287;50.984;7.022;2023-05-14T05:19:05;10.10;99.90
12446;DHT22;6287;50.984;7.022;2023-05-14T05:21:34;9.70;99.90
12446;DHT22;6287;50.984;7.022;2023-05-14T05:24:04;10.10;99.90
12446;DHT22;6287;50.984;7.022;2023-05-14T05:26:32;9.40;99.90
12446;DHT22;6287;50.984;7.022;2023-05-14T05:29:03;10.30;99.90
12446;DHT22;6287;50.984;7.022;2023-05-14T05:31:31;10.10;99.90
12446;DHT22;6287;50.984;7.022;2023-05-14T05:34:00;10.10;99.90
12446;DHT22;6287;50.984;7.022;2023-05-14T05:36:27;10.50;99.90
12446;DHT22;6287;50.984;7.022;2023-05-14T05:38:53;10.30;99.90
12446;DHT22;6287;50.984;7.022;2023-05-14T05:41:21;10.50;99.90
12446;DHT22;6287;50.984;7.022;2023-05-14T05:43:47;10.50;99.90
12446;DHT22;6287;50.984;7.022;2023-05-14T05:46:12;10.60;99.90
12446;DHT22;6287;50.984;7.022;2023-05-14T05:48:40;10.90;99.90
12446;DHT22;6287;50.984;7.022;2023-05-14T05:51:06;10.80;99.90
12446;DHT22;6287;50.984;7.022;2023-05-14T05:53:31;11.00;99.90
12446;DHT22;6287;50.984;7.022;2023-05-14T05:55:57;11.50;99.90
12446;DHT22;6287;50.984;7.022;2023-05-14T05:58:23;11.70;99.90
12446;DHT22;6287;50.984;7.022;2023-05-14T06:00:51;11.70;99.90
12446;DHT22;6287;50.984;7.022;2023-05-14T06:03:17;12.10;99.90
12446;DHT22;6287;50.984;7.022;2023-05-14T06:05:45;11.80;99.90
12446;DHT22;6287;50.984;7.022;2023-05-14T06:08:13;12.10;99.90
12446;DHT22;6287;50.984;7.022;2023-05-14T06:10:39;12.10;99.90
12446;DHT22;6287;50.984;7.022;2023-05-14T06:13:06;12.30;99.90
12446;DHT22;6287;50.984;7.022;2023-05-14T06:15:34;12.10;99.90
12446;DHT22;6287;50.984;7.022;2023-05-14T06:18:02;12.10;99.90
12446;DHT22;6287;50.984;7.022;2023-05-14T06:20:28;12.10;99.90
12446;DHT22;6287;50.984;7.022;2023-05-14T06:22:55;12.40;99.90
12446;DHT22;6287;50.984;7.022;2023-05-14T06:25:20;12.30;99.90
12446;DHT22;6287;50.984;7.022;2023-05-14T06:27:49;12.30;99.90
12446;DHT22;6287;50.984;7.022;2023-05-14T06:30:14;12.90;99.90
12446;DHT22;6287;50.984;7.022;2023-05-14T06:32:40;12.90;99.90
12446;DHT22;6287;50.984;7.022;2023-05-14T06:35:08;13.10;99.90
12446;DHT22;6287;50.984;7.022;2023-05-14T06:37:36;12.70;99.90
12446;DHT22;6287;50.984;7.022;2023-05-14T06:40:04;12.80;99.90
12446;DHT22;6287;50.984;7.022;2023-05-14T06:42:30;12.90;99.90
12446;DHT22;6287;50.984;7.022;2023-05-14T06:44:56;13.80;99.90
12446;DHT22;6287;50.984;7.022;2023-05-14T06:47:21;13.70;99.90
12446;DHT22;6287;50.984;7.022;2023-05-14T06:49:47;13.40;99.90
12446;DHT22;6287;50.984;7.022;2023-05-14T06:52:12;13.60;99.90
12446;DHT22;6287;50.984;7.022;2023-05-14T06:54:38;13.60;99.90
12446;DHT22;6287;50.984;7.022;2023-05-14T06:57:04;14.00;99.90
12446;DHT22;6287;50.984;7.022;2023-05-14T06:59:30;13.90;99.90
12446;DHT22;6287;50.984;7.022;2023-05-14T07:02:00;14.70;99.90
12446;DHT22;6287;50.984;7.022;2023-05-14T07:04:25;14.30;99.90
12446;DHT22;6287;50.984;7.022;2023-05-14T07:06:53;14.40;99.90
12446;DHT22;6287;50.984;7.022;2023-05-14T07:09:21;14.50;99.90
12446;DHT22;6287;50.984;7.022;2023-05-14T07:11:46;14.80;99.90
12446;DHT22;6287;50.984;7.022;2023-05-14T07:14:15;14.70;99.90
12446;DHT22;6287;50.984;7.022;2023-05-14T07:16:40;15.20;99.90
12446;DHT22;6287;50.984;7.022;2023-05-14T07:19:11;15.10;99.90
12446;DHT22;6287;50.984;7.022;2023-05-14T07:21:39;15.60;99.90
12446;DHT22;6287;50.984;7.022;2023-05-14T07:24:09;15.80;99.90
12446;DHT22;6287;50.984;7.022;2023-05-14T07:26:35;15.70;99.90
12446;DHT22;6287;50.984;7.022;2023-05-14T07:29:03;16.00;99.90
12446;DHT22;6287;50.984;7.022;2023-05-14T07:31:33;15.90;99.90
12446;DHT22;6287;50.984;7.022;2023-05-14T07:34:03;16.30;99.90
12446;DHT22;6287;50.984;7.022;2023-05-14T07:36:29;16.60;99.90
12446;DHT22;6287;50.984;7.022;2023-05-14T07:38:57;16.40;99.90
12446;DHT22;6287;50.984;7.022;2023-05-14T07:41:27;16.70;99.90
12446;DHT22;6287;50.984;7.022;2023-05-14T07:43:53;16.60;99.90
12446;DHT22;6287;50.984;7.022;2023-05-14T07:46:18;16.70;99.90
12446;DHT22;6287;50.984;7.022;2023-05-14T07:48:46;16.90;99.90
12446;DHT22;6287;50.984;7.022;2023-05-14T07:51:14;17.10;99.90
12446;DHT22;6287;50.984;7.022;2023-05-14T07:53:39;17.20;99.90
12446;DHT22;6287;50.984;7.022;2023-05-14T07:56:05;17.60;99.90
12446;DHT22;6287;50.984;7.022;2023-05-14T07:58:31;17.40;99.90
12446;DHT22;6287;50.984;7.022;2023-05-14T08:01:00;17.50;99.90
12446;DHT22;6287;50.984;7.022;2023-05-14T08:03:26;17.80;99.90
12446;DHT22;6287;50.984;7.022;2023-05-14T08:05:54;18.00;99.90
12446;DHT22;6287;50.984;7.022;2023-05-14T08:08:24;18.30;99.90
12446;DHT22;6287;50.984;7.022;2023-05-14T08:10:52;18.40;99.90
12446;DHT22;6287;50.984;7.022;2023-05-14T08:13:22;18.60;99.90
12446;DHT22;6287;50.984;7.022;2023-05-14T08:15:49;18.70;99.90
12446;DHT22;6287;50.984;7.022;2023-05-14T08:18:15;18.60;99.90
12446;DHT22;6287;50.984;7.022;2023-05-14T08:20:41;18.70;99.90
12446;DHT22;6287;50.984;7.022;2023-05-14T08:23:07;18.80;99.90
12446;DHT22;6287;50.984;7.022;2023-05-14T08:25:36;19.00;99.90
12446;DHT22;6287;50.984;7.022;2023-05-14T08:28:04;19.10;99.90
12446;DHT22;6287;50.984;7.022;2023-05-14T08:30:33;19.30;99.90
12446;DHT22;6287;50.984;7.022;2023-05-14T08:32:58;19.40;99.90
12446;DHT22;6287;50.984;7.022;2023-05-14T08:35:24;19.50;99.90
12446;DHT22;6287;50.984;7.022;2023-05-14T08:37:50;19.50;99.90
12446;DHT22;6287;50.984;7.022;2023-05-14T08:40:19;19.60;99.90
12446;DHT22;6287;50.984;7.022;2023-05-14T08:42:47;19.70;99.90
12446;DHT22;6287;50.984;7.022;2023-05-14T08:45:19;20.00;99.90
12446;DHT22;6287;50.984;7.022;2023-05-14T08:47:47;20.10;99.90
12446;DHT22;6287;50.984;7.022;2023-05-14T08:50:16;20.40;99.90
12446;DHT22;6287;50.984;7.022;2023-05-14T08:52:43;20.70;99.90
12446;DHT22;6287;50.984;7.022;2023-05-14T08:55:11;20.80;99.90
12446;DHT22;6287;50.984;7.022;2023-05-14T08:57:40;21.00;99.90
12446;DHT22;6287;50.984;7.022;2023-05-14T09:00:06;21.30;99.90
12446;DHT22;6287;50.984;7.022;2023-05-14T09:02:41;21.50;99.80
12446;DHT22;6287;50.984;7.022;2023-05-14T09:05:08;21.50;99.40
12446;DHT22;6287;50.984;7.022;2023-05-14T09:07:35;21.60;99.40
12446;DHT22;6287;50.984;7.022;2023-05-14T09:10:03;21.70;99.90
12446;DHT22;6287;50.984;7.022;2023-05-14T09:12:29;21.90;99.00
12446;DHT22;6287;50.984;7.022;2023-05-14T09:14:55;22.00;98.20
12446;DHT22;6287;50.984;7.022;2023-05-14T09:17:24;22.00;97.90
12446;DHT22;6287;50.984;7.022;2023-05-14T09:19:49;21.90;98.30
12446;DHT22;6287;50.984;7.022;2023-05-14T09:22:20;22.00;98.90
12446;DHT22;6287;50.984;7.022;2023-05-14T09:25:05;22.20;99.10
12446;DHT22;6287;50.984;7.022;2023-05-14T09:27:32;22.40;97.50
12446;DHT22;6287;50.984;7.022;2023-05-14T09:30:11;22.60;98.60
12446;DHT22;6287;50.984;7.022;2023-05-14T09:32:44;22.60;98.30
12446;DHT22;6287;50.984;7.022;2023-05-14T09:35:17;23.10;97.30
12446;DHT22;6287;50.984;7.022;2023-05-14T09:37:45;23.20;98.10
12446;DHT22;6287;50.984;7.022;2023-05-14T09:40:11;23.30;96.60
12446;DHT22;6287;50.984;7.022;2023-05-14T09:42:37;23.40;95.90
12446;DHT22;6287;50.984;7.022;2023-05-14T09:45:03;23.40;95.50
12446;DHT22;6287;50.984;7.022;2023-05-14T09:47:29;23.40;94.90
12446;DHT22;6287;50.984;7.022;2023-05-14T09:49:57;23.40;95.30
12446;DHT22;6287;50.984;7.022;2023-05-14T09:52:26;23.50;94.20
12446;DHT22;6287;50.984;7.022;2023-05-14T09:54:52;23.50;94.80
12446;DHT22;6287;50.984;7.022;2023-05-14T09:57:18;23.60;96.90
12446;DHT22;6287;50.984;7.022;2023-05-14T09:59:46;23.60;96.30
12446;DHT22;6287;50.984;7.022;2023-05-14T10:02:24;23.70;96.20
12446;DHT22;6287;50.984;7.022;2023-05-14T10:04:52;23.70;94.40
12446;DHT22;6287;50.984;7.022;2023-05-14T10:07:22;23.70;95.60
12446;DHT22;6287;50.984;7.022;2023-05-14T10:09:54;23.90;95.90
12446;DHT22;6287;50.984;7.022;2023-05-14T10:12:24;24.00;97.20
12446;DHT22;6287;50.984;7.022;2023-05-14T10:14:52;24.20;94.60
12446;DHT22;6287;50.984;7.022;2023-05-14T10:17:24;24.40;95.70
12446;DHT22;6287;50.984;7.022;2023-05-14T10:19:53;24.30;95.00
12446;DHT22;6287;50.984;7.022;2023-05-14T10:22:30;24.30;95.50
12446;DHT22;6287;50.984;7.022;2023-05-14T10:24:58;24.40;95.40
12446;DHT22;6287;50.984;7.022;2023-05-14T10:27:24;24.60;97.40
12446;DHT22;6287;50.984;7.022;2023-05-14T10:29:51;24.90;97.10
12446;DHT22;6287;50.984;7.022;2023-05-14T10:32:26;25.10;96.40
12446;DHT22;6287;50.984;7.022;2023-05-14T10:34:52;25.30;97.50
12446;DHT22;6287;50.984;7.022;2023-05-14T10:37:21;25.60;97.90
12446;DHT22;6287;50.984;7.022;2023-05-14T10:42:24;26.10;94.90
12446;DHT22;6287;50.984;7.022;2023-05-14T10:44:57;26.00;96.20
12446;DHT22;6287;50.984;7.022;2023-05-14T10:47:30;26.20;96.50
12446;DHT22;6287;50.984;7.022;2023-05-14T10:50:02;26.40;96.20
12446;DHT22;6287;50.984;7.022;2023-05-14T10:52:30;26.60;94.30
12446;DHT22;6287;50.984;7.022;2023-05-14T10:54:58;27.00;93.30
12446;DHT22;6287;50.984;7.022;2023-05-14T10:57:29;27.10;93.70
12446;DHT22;6287;50.984;7.022;2023-05-14T10:59:58;27.50;96.40
12446;DHT22;6287;50.984;7.022;2023-05-14T11:02:30;27.80;92.60
12446;DHT22;6287;50.984;7.022;2023-05-14T11:07:27;28.20;94.20
12446;DHT22;6287;50.984;7.022;2023-05-14T11:10:03;28.30;92.50
12446;DHT22;6287;50.984;7.022;2023-05-14T11:12:29;28.40;92.70
12446;DHT22;6287;50.984;7.022;2023-05-14T11:14:56;28.20;89.00
12446;DHT22;6287;50.984;7.022;2023-05-14T11:17:24;28.00;89.70
12446;DHT22;6287;50.984;7.022;2023-05-14T11:19:50;27.60;90.70
12446;DHT22;6287;50.984;7.022;2023-05-14T11:22:17;27.40;91.70
12446;DHT22;6287;50.984;7.022;2023-05-14T11:24:43;27.30;90.10
12446;DHT22;6287;50.984;7.022;2023-05-14T11:27:11;26.70;90.80
12446;DHT22;6287;50.984;7.022;2023-05-14T11:29:45;26.40;91.70
12446;DHT22;6287;50.984;7.022;2023-05-14T11:32:11;26.20;92.30
12446;DHT22;6287;50.984;7.022;2023-05-14T11:34:37;25.70;90.30
12446;DHT22;6287;50.984;7.022;2023-05-14T11:37:06;25.60;92.90
12446;DHT22;6287;50.984;7.022;2023-05-14T11:39:32;25.50;92.20
12446;DHT22;6287;50.984;7.022;2023-05-14T11:42:03;25.40;91.90
12446;DHT22;6287;50.984;7.022;2023-05-14T11:44:30;25.30;91.20
12446;DHT22;6287;50.984;7.022;2023-05-14T11:46:57;25.20;91.90
12446;DHT22;6287;50.984;7.022;2023-05-14T11:49:23;25.10;92.20
12446;DHT22;6287;50.984;7.022;2023-05-14T11:51:55;25.00;91.50
12446;DHT22;6287;50.984;7.022;2023-05-14T11:54:21;25.00;91.00
12446;DHT22;6287;50.984;7.022;2023-05-14T11:56:50;24.90;91.30
12446;DHT22;6287;50.984;7.022;2023-05-14T11:59:18;24.90;91.70
12446;DHT22;6287;50.984;7.022;2023-05-14T12:01:46;24.70;91.60
12446;DHT22;6287;50.984;7.022;2023-05-14T12:04:15;24.80;91.30
12446;DHT22;6287;50.984;7.022;2023-05-14T12:06:43;24.70;92.60
12446;DHT22;6287;50.984;7.022;2023-05-14T12:09:11;24.70;92.00
12446;DHT22;6287;50.984;7.022;2023-05-14T12:11:37;24.70;91.30
12446;DHT22;6287;50.984;7.022;2023-05-14T12:14:20;24.90;90.70
12446;DHT22;6287;50.984;7.022;2023-05-14T12:16:46;25.10;88.50
12446;DHT22;6287;50.984;7.022;2023-05-14T12:19:17;25.60;91.30
12446;DHT22;6287;50.984;7.022;2023-05-14T12:21:44;26.00;91.20
12446;DHT22;6287;50.984;7.022;2023-05-14T12:24:17;26.20;91.90
12446;DHT22;6287;50.984;7.022;2023-05-14T12:26:48;26.30;90.50
12446;DHT22;6287;50.984;7.022;2023-05-14T12:29:14;26.30;88.40
12446;DHT22;6287;50.984;7.022;2023-05-14T12:31:48;26.40;88.80
12446;DHT22;6287;50.984;7.022;2023-05-14T12:34:14;26.60;87.70
12446;DHT22;6287;50.984;7.022;2023-05-14T12:36:43;26.40;85.60
12446;DHT22;6287;50.984;7.022;2023-05-14T12:39:11;26.20;90.30
12446;DHT22;6287;50.984;7.022;2023-05-14T12:41:39;25.80;84.50
12446;DHT22;6287;50.984;7.022;2023-05-14T12:44:05;25.50;87.80
12446;DHT22;6287;50.984;7.022;2023-05-14T12:46:31;25.30;89.90
12446;DHT22;6287;50.984;7.022;2023-05-14T12:48:58;25.30;89.00
12446;DHT22;6287;50.984;7.022;2023-05-14T12:51:24;25.10;88.80
12446;DHT22;6287;50.984;7.022;2023-05-14T12:53:50;25.00;91.10
12446;DHT22;6287;50.984;7.022;2023-05-14T12:56:16;25.20;88.80
12446;DHT22;6287;50.984;7.022;2023-05-14T12:58:42;25.90;87.50
12446;DHT22;6287;50.984;7.022;2023-05-14T13:01:07;27.10;87.70
12446;DHT22;6287;50.984;7.022;2023-05-14T13:03:33;28.30;80.80
12446;DHT22;6287;50.984;7.022;2023-05-14T13:06:01;29.20;67.10
12446;DHT22;6287;50.984;7.022;2023-05-14T13:08:29;30.10;75.80
12446;DHT22;6287;50.984;7.022;2023-05-14T13:10:57;30.80;75.70
12446;DHT22;6287;50.984;7.022;2023-05-14T13:13:25;31.30;79.10
12446;DHT22;6287;50.984;7.022;2023-05-14T13:15:52;31.00;72.90
12446;DHT22;6287;50.984;7.022;2023-05-14T13:18:17;30.20;73.20
12446;DHT22;6287;50.984;7.022;2023-05-14T13:20:45;29.40;75.40
12446;DHT22;6287;50.984;7.022;2023-05-14T13:23:16;28.90;75.70
12446;DHT22;6287;50.984;7.022;2023-05-14T13:25:41;28.30;74.40
12446;DHT22;6287;50.984;7.022;2023-05-14T13:28:07;28.20;75.40
12446;DHT22;6287;50.984;7.022;2023-05-14T13:30:38;28.70;75.10
12446;DHT22;6287;50.984;7.022;2023-05-14T13:33:04;29.40;73.90
12446;DHT22;6287;50.984;7.022;2023-05-14T13:35:30;30.00;67.20
12446;DHT22;6287;50.984;7.022;2023-05-14T13:38:01;30.20;72.40
12446;DHT22;6287;50.984;7.022;2023-05-14T13:40:27;30.20;70.60
12446;DHT22;6287;50.984;7.022;2023-05-14T13:42:57;30.40;72.40
12446;DHT22;6287;50.984;7.022;2023-05-14T13:45:27;30.30;68.10
12446;DHT22;6287;50.984;7.022;2023-05-14T13:47:55;30.00;68.10
12446;DHT22;6287;50.984;7.022;2023-05-14T13:50:22;29.70;70.40
12446;DHT22;6287;50.984;7.022;2023-05-14T13:52:52;29.40;73.60
12446;DHT22;6287;50.984;7.022;2023-05-14T13:55:18;29.20;75.00
12446;DHT22;6287;50.984;7.022;2023-05-14T13:57:43;28.80;75.00
12446;DHT22;6287;50.984;7.022;2023-05-14T14:00:10;28.50;74.70
12446;DHT22;6287;50.984;7.022;2023-05-14T14:02:35;28.20;71.80
12446;DHT22;6287;50.984;7.022;2023-05-14T14:05:04;27.90;73.10
12446;DHT22;6287;50.984;7.022;2023-05-14T14:07:32;27.40;73.70
12446;DHT22;6287;50.984;7.022;2023-05-14T14:09:57;27.00;74.00
12446;DHT22;6287;50.984;7.022;2023-05-14T14:12:26;26.60;73.80
12446;DHT22;6287;50.984;7.022;2023-05-14T14:14:59;26.40;79.50
12446;DHT22;6287;50.984;7.022;2023-05-14T14:17:25;26.20;77.80
12446;DHT22;6287;50.984;7.022;2023-05-14T14:19:50;26.30;77.10
12446;DHT22;6287;50.984;7.022;2023-05-14T14:22:18;26.30;80.20
12446;DHT22;6287;50.984;7.022;2023-05-14T14:24:44;26.40;79.30
12446;DHT22;6287;50.984;7.022;2023-05-14T14:27:10;26.50;83.60
12446;DHT22;6287;50.984;7.022;2023-05-14T14:29:36;26.50;75.70
12446;DHT22;6287;50.984;7.022;2023-05-14T14:32:06;26.40;78.70
12446;DHT22;6287;50.984;7.022;2023-05-14T14:34:34;26.70;77.10
12446;DHT22;6287;50.984;7.022;2023-05-14T14:36:59;27.40;80.00
12446;DHT22;6287;50.984;7.022;2023-05-14T14:39:27;28.00;75.20
12446;DHT22;6287;50.984;7.022;2023-05-14T14:41:55;28.40;75.20
12446;DHT22;6287;50.984;7.022;2023-05-14T14:44:23;28.80;70.50
12446;DHT22;6287;50.984;7.022;2023-05-14T14:46:51;28.80;74.40
12446;DHT22;6287;50.984;7.022;2023-05-14T14:49:17;29.00;73.10
12446;DHT22;6287;50.984;7.022;2023-05-14T14:51:44;28.70;72.70
12446;DHT22;6287;50.984;7.022;2023-05-14T14:54:15;28.30;72.90
12446;DHT22;6287;50.984;7.022;2023-05-14T14:56:40;27.80;75.00
12446;DHT22;6287;50.984;7.022;2023-05-14T14:59:10;27.80;75.80
12446;DHT22;6287;50.984;7.022;2023-05-14T15:01:35;27.80;76.50
12446;DHT22;6287;50.984;7.022;2023-05-14T15:04:01;28.10;72.00
12446;DHT22;6287;50.984;7.022;2023-05-14T15:06:31;28.10;73.20
12446;DHT22;6287;50.984;7.022;2023-05-14T15:08:56;27.80;70.60
12446;DHT22;6287;50.984;7.022;2023-05-14T15:11:24;27.90;75.80
12446;DHT22;6287;50.984;7.022;2023-05-14T15:13:50;28.20;73.70
12446;DHT22;6287;50.984;7.022;2023-05-14T15:16:15;28.60;74.50
12446;DHT22;6287;50.984;7.022;2023-05-14T15:18:41;28.80;70.60
12446;DHT22;6287;50.984;7.022;2023-05-14T15:21:09;28.70;71.10
12446;DHT22;6287;50.984;7.022;2023-05-14T15:23:35;29.00;73.10
12446;DHT22;6287;50.984;7.022;2023-05-14T15:26:03;29.30;67.40
12446;DHT22;6287;50.984;7.022;2023-05-14T15:28:28;29.70;67.60
12446;DHT22;6287;50.984;7.022;2023-05-14T15:30:54;30.00;69.00
12446;DHT22;6287;50.984;7.022;2023-05-14T15:33:19;30.20;71.60
12446;DHT22;6287;50.984;7.022;2023-05-14T15:35:45;30.40;68.80
12446;DHT22;6287;50.984;7.022;2023-05-14T15:38:13;30.40;72.10
12446;DHT22;6287;50.984;7.022;2023-05-14T15:40:43;30.60;70.00
12446;DHT22;6287;50.984;7.022;2023-05-14T15:43:08;30.40;70.20
12446;DHT22;6287;50.984;7.022;2023-05-14T15:45:36;30.00;71.30
12446;DHT22;6287;50.984;7.022;2023-05-14T15:48:06;29.80;72.00
12446;DHT22;6287;50.984;7.022;2023-05-14T15:50:37;29.50;71.40
12446;DHT22;6287;50.984;7.022;2023-05-14T15:53:09;29.40;74.70
12446;DHT22;6287;50.984;7.022;2023-05-14T15:55:34;28.90;74.60
12446;DHT22;6287;50.984;7.022;2023-05-14T15:58:01;28.10;73.00